createdAt,value
2019-05-07T00:01:43.988Z,27.90
2019-05-07T00:04:12.959Z,27.90
2019-05-07T00:06:43.415Z,27.80
2019-05-07T00:09:13.776Z,27.90
2019-05-07T00:11:42.771Z,27.80
2019-05-07T00:14:12.575Z,27.80
2019-05-07T00:16:42.317Z,27.80
2019-05-07T00:19:12.901Z,27.80
2019-05-07T00:21:42.408Z,27.80
2019-05-07T00:24:13.237Z,27.80
2019-05-07T00:26:43.063Z,27.80
2019-05-07T00:29:12.963Z,27.80
2019-05-07T00:31:42.138Z,27.80
2019-05-07T00:34:12.606Z,27.70
2019-05-07T00:36:59.228Z,27.70
2019-05-07T00:39:32.837Z,27.70
2019-05-07T00:42:22.056Z,27.70
2019-05-07T00:44:55.215Z,27.70
2019-05-07T00:47:23.978Z,27.80
2019-05-07T00:49:53.346Z,27.80
2019-05-07T00:52:22.582Z,27.70
2019-05-07T00:54:53.133Z,27.70
2019-05-07T00:57:22.900Z,27.80
2019-05-07T00:59:52.464Z,27.80
2019-05-07T01:02:22.833Z,27.70
2019-05-07T01:04:53.188Z,27.80
2019-05-07T01:07:22.963Z,27.70
2019-05-07T01:09:52.377Z,27.80
2019-05-07T01:12:22.203Z,27.70
2019-05-07T01:14:52.839Z,27.80
2019-05-07T01:17:22.667Z,27.70
2019-05-07T01:19:53.224Z,27.80
2019-05-07T01:22:22.369Z,27.80
2019-05-07T01:24:52.607Z,27.70
2019-05-07T01:27:22.650Z,27.70
2019-05-07T01:29:52.757Z,27.70
2019-05-07T01:32:23.213Z,27.70
2019-05-07T01:34:53.535Z,27.70
2019-05-07T01:37:23.116Z,27.70
2019-05-07T01:39:52.957Z,27.70
2019-05-07T01:42:22.199Z,27.70
2019-05-07T01:44:52.860Z,27.70
2019-05-07T01:47:23.534Z,27.70
2019-05-07T01:49:52.779Z,27.70
2019-05-07T01:52:22.744Z,27.70
2019-05-07T01:54:52.277Z,27.70
2019-05-07T01:57:22.998Z,27.70
2019-05-07T01:59:52.773Z,27.70
2019-05-07T02:02:23.336Z,27.70
2019-05-07T02:04:59.496Z,27.70
2019-05-07T02:07:35.941Z,27.70
2019-05-07T02:10:07.185Z,27.70
2019-05-07T02:12:37.348Z,27.70
2019-05-07T02:15:07.217Z,27.70
2019-05-07T02:17:35.990Z,27.70
2019-05-07T02:20:06.558Z,27.70
2019-05-07T02:22:35.325Z,27.60
2019-05-07T02:25:04.694Z,27.70
2019-05-07T02:27:33.451Z,27.70
2019-05-07T02:30:04.187Z,27.70
2019-05-07T02:32:33.577Z,27.60
2019-05-07T02:35:04.081Z,27.60
2019-05-07T02:37:47.118Z,27.70
2019-05-07T02:40:08.286Z,27.70
2019-05-07T02:42:37.244Z,27.60
2019-05-07T02:45:27.000Z,27.60
2019-05-07T02:47:55.755Z,27.60
2019-05-07T02:50:29.200Z,27.60
2019-05-07T02:53:05.592Z,27.60
2019-05-07T02:55:43.444Z,27.60
2019-05-07T02:58:13.715Z,27.60
2019-05-07T03:00:43.380Z,27.60
2019-05-07T03:03:13.892Z,27.60
2019-05-07T03:05:43.365Z,27.60
2019-05-07T03:08:13.473Z,27.60
2019-05-07T03:10:43.460Z,27.60
2019-05-07T03:13:13.684Z,27.60
2019-05-07T03:15:43.622Z,27.60
2019-05-07T03:18:13.854Z,27.60
2019-05-07T03:20:53.275Z,27.60
2019-05-07T03:23:22.910Z,27.60
2019-05-07T03:25:55.802Z,27.60
2019-05-07T03:28:26.077Z,27.50
2019-05-07T03:30:57.201Z,27.60
2019-05-07T03:33:27.750Z,27.60
2019-05-07T03:35:58.082Z,27.60
2019-05-07T03:38:26.855Z,27.50
2019-05-07T03:40:55.613Z,27.50
2019-05-07T03:43:25.958Z,27.50
2019-05-07T03:45:59.537Z,27.60
2019-05-07T03:48:32.991Z,27.50
2019-05-07T03:51:03.395Z,27.50
2019-05-07T03:53:33.546Z,27.50
2019-05-07T03:56:04.059Z,27.40
2019-05-07T03:58:33.925Z,27.50
2019-05-07T04:01:04.223Z,27.50
2019-05-07T04:03:34.139Z,27.50
2019-05-07T04:06:03.844Z,27.50
2019-05-07T04:08:33.587Z,27.50
2019-05-07T04:11:03.634Z,27.50
2019-05-07T04:13:33.662Z,27.50
2019-05-07T04:16:04.025Z,27.50
2019-05-07T04:18:33.448Z,27.50
2019-05-07T04:21:03.721Z,27.50
2019-05-07T04:23:34.159Z,27.50
2019-05-07T04:26:04.788Z,27.50
2019-05-07T04:28:35.144Z,27.50
2019-05-07T04:31:04.123Z,27.50
2019-05-07T04:33:37.296Z,27.50
2019-05-07T04:36:14.289Z,27.40
2019-05-07T04:38:43.962Z,27.50
2019-05-07T04:41:13.870Z,27.50
2019-05-07T04:43:43.456Z,27.50
2019-05-07T04:46:14.377Z,27.50
2019-05-07T04:48:43.895Z,27.50
2019-05-07T04:51:14.550Z,27.50
2019-05-07T04:53:43.397Z,27.50
2019-05-07T04:56:14.013Z,27.50
2019-05-07T04:58:43.307Z,27.50
2019-05-07T05:01:14.096Z,27.50
2019-05-07T05:03:43.654Z,27.40
2019-05-07T05:06:13.672Z,27.40
2019-05-07T05:08:43.579Z,27.50
2019-05-07T05:11:13.424Z,27.50
2019-05-07T05:13:44.507Z,27.40
2019-05-07T05:16:25.854Z,27.50
2019-05-07T05:18:55.814Z,27.50
2019-05-07T05:21:38.299Z,27.40
2019-05-07T05:24:14.408Z,27.40
2019-05-07T05:26:43.180Z,27.40
2019-05-07T05:29:12.189Z,27.40
2019-05-07T05:31:42.184Z,27.50
2019-05-07T05:34:12.961Z,27.40
2019-05-07T05:36:42.454Z,27.40
2019-05-07T05:39:13.147Z,27.40
2019-05-07T05:41:44.040Z,27.40
2019-05-07T05:44:14.388Z,27.40
2019-05-07T05:46:43.188Z,27.40
2019-05-07T05:49:12.274Z,27.40
2019-05-07T05:51:43.064Z,27.40
2019-05-07T05:54:25.282Z,27.40
2019-05-07T05:57:07.657Z,27.40
2019-05-07T05:59:49.211Z,27.40
2019-05-07T06:02:07.652Z,27.40
2019-05-07T06:04:54.142Z,27.40
2019-05-07T06:07:33.201Z,27.40
2019-05-07T06:10:06.223Z,27.30
2019-05-07T06:12:39.537Z,27.20
2019-05-07T06:15:24.760Z,27.10
2019-05-07T06:17:57.812Z,27.00
2019-05-07T06:20:33.873Z,26.80
2019-05-07T06:23:19.066Z,26.70
2019-05-07T06:25:48.725Z,26.70
2019-05-07T06:28:17.492Z,26.60
2019-05-07T06:30:46.264Z,26.50
2019-05-07T06:33:15.038Z,26.50
2019-05-07T06:35:43.804Z,26.50
2019-05-07T06:38:13.569Z,26.40
2019-05-07T06:40:46.607Z,26.40
2019-05-07T06:43:16.935Z,26.30
2019-05-07T06:45:47.273Z,26.20
2019-05-07T06:48:16.045Z,26.30
2019-05-07T06:50:56.940Z,26.20
2019-05-07T06:53:30.000Z,26.20
2019-05-07T06:55:59.986Z,26.20
2019-05-07T06:58:32.563Z,26.10
2019-05-07T07:01:17.847Z,26.10
2019-05-07T07:04:02.402Z,26.10
2019-05-07T07:06:52.344Z,26.00
2019-05-07T07:09:25.267Z,26.00
2019-05-07T07:12:07.634Z,25.90
2019-05-07T07:14:36.397Z,26.00
2019-05-07T07:17:05.168Z,26.10
2019-05-07T07:19:36.131Z,26.10
2019-05-07T07:22:04.449Z,26.20
2019-05-07T07:24:33.213Z,26.20
2019-05-07T07:27:02.489Z,26.20
2019-05-07T07:29:32.866Z,26.30
2019-05-07T07:32:03.205Z,26.30
2019-05-07T07:34:33.549Z,26.30
2019-05-07T07:37:18.788Z,26.30
2019-05-07T07:39:47.552Z,26.40
2019-05-07T07:42:16.324Z,26.40
2019-05-07T07:44:45.093Z,26.40
2019-05-07T07:47:13.857Z,26.40
2019-05-07T07:49:42.628Z,26.50
2019-05-07T07:52:12.222Z,26.50
2019-05-07T07:54:42.880Z,26.50
2019-05-07T07:57:13.054Z,26.60
2019-05-07T07:59:43.386Z,26.60
2019-05-07T08:02:28.869Z,26.40
2019-05-07T08:04:57.633Z,26.30
2019-05-07T08:07:26.395Z,26.00
2019-05-07T08:09:55.173Z,25.90
2019-05-07T08:12:23.942Z,25.70
2019-05-07T08:14:52.716Z,25.70
2019-05-07T08:17:22.359Z,25.60
2019-05-07T08:19:52.063Z,25.60
2019-05-07T08:22:22.621Z,25.50
2019-05-07T08:24:51.884Z,25.50
2019-05-07T08:27:22.210Z,25.40
2019-05-07T08:29:52.431Z,25.40
2019-05-07T08:32:39.131Z,25.40
2019-05-07T08:35:15.404Z,25.40
2019-05-07T08:37:44.180Z,25.30
2019-05-07T08:40:13.038Z,25.30
2019-05-07T08:42:41.953Z,25.30
2019-05-07T08:45:21.761Z,25.30
2019-05-07T08:47:52.555Z,25.30
2019-05-07T08:50:22.233Z,25.20
2019-05-07T08:52:52.179Z,25.20
2019-05-07T08:55:21.762Z,25.20
2019-05-07T08:57:52.116Z,25.20
2019-05-07T09:00:22.972Z,25.20
2019-05-07T09:02:52.462Z,25.20
2019-05-07T09:05:22.087Z,25.20
2019-05-07T09:07:51.727Z,25.20
2019-05-07T09:10:21.825Z,25.20
2019-05-07T09:12:52.450Z,25.20
2019-05-07T09:15:22.629Z,25.20
2019-05-07T09:17:52.649Z,25.20
2019-05-07T09:20:22.861Z,25.20
2019-05-07T09:22:51.910Z,25.20
2019-05-07T09:25:22.266Z,25.20
2019-05-07T09:27:52.844Z,25.20
2019-05-07T09:30:29.458Z,25.20
2019-05-07T09:33:05.475Z,25.20
2019-05-07T09:35:39.901Z,25.20
2019-05-07T09:38:08.726Z,25.20
2019-05-07T09:40:37.489Z,25.20
2019-05-07T09:43:06.255Z,25.20
2019-05-07T09:45:35.016Z,25.20
2019-05-07T09:48:03.886Z,25.20
2019-05-07T09:50:32.735Z,25.20
2019-05-07T09:53:02.315Z,25.20
2019-05-07T09:55:32.522Z,25.20
2019-05-07T09:58:01.990Z,25.40
2019-05-07T10:00:32.031Z,25.70
2019-05-07T10:03:00.904Z,25.80
2019-05-07T10:05:31.949Z,25.90
2019-05-07T10:08:01.865Z,25.90
2019-05-07T10:10:32.729Z,25.90
2019-05-07T10:13:08.478Z,25.90
2019-05-07T10:15:37.437Z,25.90
2019-05-07T10:20:42.328Z,25.90
2019-05-07T10:23:16.824Z,25.90
2019-05-07T10:25:50.908Z,25.90
2019-05-07T10:28:22.589Z,25.90
2019-05-07T10:30:52.117Z,25.90
2019-05-07T10:33:22.858Z,25.90
2019-05-07T10:35:52.916Z,25.90
2019-05-07T10:38:21.931Z,25.80
2019-05-07T10:40:50.666Z,25.80
2019-05-07T10:43:19.527Z,25.80
2019-05-07T10:45:51.969Z,25.80
2019-05-07T10:48:33.644Z,25.80
2019-05-07T10:51:06.776Z,25.80
2019-05-07T10:53:35.513Z,25.80
2019-05-07T10:56:04.322Z,25.70
2019-05-07T10:58:33.077Z,25.70
2019-05-07T11:01:02.948Z,25.70
2019-05-07T11:03:32.374Z,25.70
2019-05-07T11:06:01.304Z,25.70
2019-05-07T11:08:32.672Z,25.70
2019-05-07T11:11:02.956Z,25.60
2019-05-07T11:13:31.544Z,25.60
2019-05-07T11:16:02.442Z,25.60
2019-05-07T11:18:32.826Z,25.60
2019-05-07T11:21:03.084Z,25.60
2019-05-07T11:23:34.051Z,25.60
2019-05-07T11:26:02.813Z,25.70
2019-05-07T11:28:32.301Z,25.60
2019-05-07T11:31:02.121Z,25.60
2019-05-07T11:33:32.549Z,25.60
2019-05-07T11:36:02.047Z,25.60
2019-05-07T11:38:33.131Z,25.60
2019-05-07T11:41:02.276Z,25.50
2019-05-07T11:43:32.866Z,25.60
2019-05-07T11:46:09.084Z,25.60
2019-05-07T11:48:39.407Z,25.60
2019-05-07T11:51:15.481Z,25.60
2019-05-07T11:54:02.140Z,25.60
2019-05-07T11:56:32.776Z,25.60
2019-05-07T11:59:02.651Z,25.60
2019-05-07T12:01:44.009Z,25.50
2019-05-07T12:04:02.491Z,25.50
2019-05-07T12:06:32.152Z,25.60
2019-05-07T12:09:02.891Z,25.50
2019-05-07T12:11:32.196Z,25.50
2019-05-07T12:14:02.027Z,25.50
2019-05-07T12:16:32.118Z,25.60
2019-05-07T12:19:02.229Z,25.50
2019-05-07T12:21:31.349Z,25.50
2019-05-07T12:24:02.052Z,25.50
2019-05-07T12:26:31.558Z,25.50
2019-05-07T12:29:00.340Z,25.50
2019-05-07T12:31:42.771Z,25.50
2019-05-07T12:34:16.456Z,25.50
2019-05-07T12:36:45.215Z,25.50
2019-05-07T12:39:14.032Z,25.50
2019-05-07T12:41:42.868Z,25.50
2019-05-07T12:44:12.951Z,25.50
2019-05-07T12:46:42.375Z,25.50
2019-05-07T12:49:11.965Z,25.50
2019-05-07T12:51:42.787Z,25.50
2019-05-07T12:54:19.112Z,25.50
2019-05-07T12:56:47.945Z,25.50
2019-05-07T12:59:16.727Z,25.50
2019-05-07T13:01:52.773Z,25.50
2019-05-07T13:04:23.344Z,25.50
2019-05-07T13:07:02.502Z,25.50
2019-05-07T13:09:32.500Z,25.50
2019-05-07T13:12:03.040Z,25.50
2019-05-07T13:14:31.856Z,25.20
2019-05-07T13:17:02.619Z,25.00
2019-05-07T13:19:32.906Z,24.80
2019-05-07T13:22:02.315Z,24.80
2019-05-07T13:24:32.137Z,24.70
2019-05-07T13:27:03.101Z,24.70
2019-05-07T13:29:32.646Z,24.70
2019-05-07T13:32:03.592Z,24.60
2019-05-07T13:34:34.173Z,24.60
2019-05-07T13:37:04.845Z,24.60
2019-05-07T13:39:35.590Z,24.60
2019-05-07T13:42:12.678Z,24.60
2019-05-07T13:44:43.810Z,24.60
2019-05-07T13:47:26.281Z,24.60
2019-05-07T13:49:55.972Z,24.50
2019-05-07T13:52:25.219Z,24.50
2019-05-07T13:54:54.619Z,24.50
2019-05-07T13:57:23.595Z,24.50
2019-05-07T13:59:53.249Z,24.50
2019-05-07T14:02:23.687Z,24.50
2019-05-07T14:04:53.231Z,24.50
2019-05-07T14:07:22.503Z,24.50
2019-05-07T14:09:52.668Z,24.50
2019-05-07T14:12:22.941Z,24.50
2019-05-07T14:14:53.098Z,24.50
2019-05-07T14:17:22.193Z,24.50
2019-05-07T14:19:52.861Z,24.50
2019-05-07T14:22:22.504Z,24.50
2019-05-07T14:24:53.095Z,24.50
2019-05-07T14:27:22.236Z,24.40
2019-05-07T14:29:52.133Z,24.50
2019-05-07T14:32:35.179Z,24.40
2019-05-07T14:35:12.182Z,24.50
2019-05-07T14:37:42.350Z,24.40
2019-05-07T14:40:12.916Z,24.40
2019-05-07T14:42:43.361Z,24.40
2019-05-07T14:45:12.327Z,24.40
2019-05-07T14:47:44.418Z,24.40
2019-05-07T14:50:12.316Z,24.50
2019-05-07T14:52:43.048Z,24.40
2019-05-07T14:55:12.751Z,24.40
2019-05-07T14:57:42.196Z,24.50
2019-05-07T15:00:12.365Z,24.40
2019-05-07T15:02:42.133Z,24.40
2019-05-07T15:05:12.019Z,24.50
2019-05-07T15:07:41.165Z,24.40
2019-05-07T15:10:10.039Z,24.40
2019-05-07T15:12:38.801Z,24.40
2019-05-07T15:15:08.169Z,24.40
2019-05-07T15:17:47.231Z,24.40
2019-05-07T15:20:16.586Z,24.50
2019-05-07T15:22:52.762Z,24.40
2019-05-07T15:25:22.710Z,24.40
2019-05-07T15:27:52.758Z,24.50
2019-05-07T15:30:22.177Z,24.40
2019-05-07T15:32:52.138Z,24.40
2019-05-07T15:35:21.008Z,24.50
2019-05-07T15:37:51.697Z,24.40
2019-05-07T15:40:22.333Z,24.40
2019-05-07T15:42:52.489Z,24.40
2019-05-07T15:45:21.772Z,24.40
2019-05-07T15:47:52.140Z,24.40
2019-05-07T15:50:23.043Z,24.40
2019-05-07T15:52:58.534Z,24.40
2019-05-07T15:55:23.828Z,24.40
2019-05-07T15:57:52.697Z,24.40
2019-05-07T16:00:28.860Z,24.40
2019-05-07T16:02:59.190Z,24.40
2019-05-07T16:05:27.959Z,24.40
2019-05-07T16:07:56.731Z,24.40
2019-05-07T16:10:25.512Z,24.40
2019-05-07T16:12:54.376Z,24.40
2019-05-07T16:15:23.647Z,24.40
2019-05-07T16:18:03.055Z,24.40
2019-05-07T16:20:32.599Z,24.40
2019-05-07T16:23:14.434Z,24.40
2019-05-07T16:25:33.000Z,24.40
2019-05-07T16:28:04.762Z,24.40
2019-05-07T16:30:32.630Z,24.40
2019-05-07T16:33:02.188Z,24.40
2019-05-07T16:35:32.019Z,24.40
2019-05-07T16:38:00.953Z,24.50
2019-05-07T16:40:32.094Z,24.40
2019-05-07T16:43:00.153Z,24.40
2019-05-07T16:45:28.923Z,24.40
2019-05-07T16:48:00.398Z,24.40
2019-05-07T16:50:28.220Z,24.40
2019-05-07T16:52:56.996Z,24.40
2019-05-07T16:55:27.382Z,24.40
2019-05-07T16:58:03.695Z,24.40
2019-05-07T17:00:34.132Z,24.40
2019-05-07T17:03:04.487Z,24.40
2019-05-07T17:05:33.282Z,24.40
2019-05-07T17:08:03.659Z,24.40
2019-05-07T17:10:32.452Z,24.40
2019-05-07T17:13:02.885Z,24.40
2019-05-07T17:15:33.306Z,24.40
2019-05-07T17:18:02.815Z,24.40
2019-05-07T17:20:32.742Z,24.40
2019-05-07T17:23:02.966Z,24.40
2019-05-07T17:25:37.908Z,24.40
2019-05-07T17:28:08.390Z,24.30
2019-05-07T17:30:37.869Z,24.30
2019-05-07T17:33:06.997Z,24.30
2019-05-07T17:35:35.771Z,24.30
2019-05-07T17:38:09.472Z,24.30
2019-05-07T17:40:34.981Z,24.30
2019-05-07T17:43:03.849Z,24.30
2019-05-07T17:45:33.016Z,24.30
2019-05-07T17:48:03.227Z,24.30
2019-05-07T17:50:39.753Z,24.30
2019-05-07T17:53:08.519Z,24.30
2019-05-07T17:55:37.301Z,24.30
2019-05-07T17:58:06.072Z,24.30
2019-05-07T18:00:34.912Z,24.30
2019-05-07T18:03:07.952Z,24.30
2019-05-07T18:05:36.760Z,24.30
2019-05-07T18:08:05.536Z,24.30
2019-05-07T18:10:34.323Z,24.30
2019-05-07T18:13:03.092Z,24.30
2019-05-07T18:15:32.304Z,24.30
2019-05-07T18:18:05.148Z,24.30
2019-05-07T18:20:33.927Z,24.30
2019-05-07T18:23:02.804Z,24.30
2019-05-07T18:25:32.405Z,24.30
2019-05-07T18:28:01.813Z,24.40
2019-05-07T18:30:32.638Z,24.40
2019-05-07T18:33:14.644Z,24.40
2019-05-07T18:35:45.596Z,24.30
2019-05-07T18:38:14.372Z,24.30
2019-05-07T18:40:43.181Z,24.30
2019-05-07T18:43:12.365Z,24.30
2019-05-07T18:45:41.115Z,24.30
2019-05-07T18:48:11.828Z,24.30
2019-05-07T18:50:41.981Z,24.30
2019-05-07T18:53:12.199Z,24.30
2019-05-07T18:55:42.321Z,24.30
2019-05-07T18:58:13.157Z,24.30
2019-05-07T19:00:43.166Z,24.30
2019-05-07T19:03:11.940Z,24.30
2019-05-07T19:05:42.426Z,24.30
2019-05-07T19:08:12.860Z,24.30
2019-05-07T19:10:42.912Z,24.30
2019-05-07T19:13:11.777Z,24.30
2019-05-07T19:15:42.010Z,24.30
2019-05-07T19:18:12.115Z,24.30
2019-05-07T19:20:42.189Z,24.30
2019-05-07T19:23:11.087Z,24.40
2019-05-07T19:25:41.929Z,24.30
2019-05-07T19:28:12.748Z,24.30
2019-05-07T19:30:42.080Z,24.30
2019-05-07T19:33:12.364Z,24.30
2019-05-07T19:35:41.905Z,24.30
2019-05-07T19:38:10.764Z,24.30
2019-05-07T19:40:41.483Z,24.30
2019-05-07T19:43:09.990Z,24.30
2019-05-07T19:45:38.756Z,24.40
2019-05-07T19:48:09.312Z,24.30
2019-05-07T19:50:38.003Z,24.30
2019-05-07T19:53:06.785Z,24.30
2019-05-07T19:55:53.731Z,24.30
2019-05-07T19:58:23.097Z,24.30
2019-05-07T20:00:56.858Z,24.30
2019-05-07T20:03:22.533Z,24.30
2019-05-07T20:05:52.507Z,24.30
2019-05-07T20:08:21.816Z,24.30
2019-05-07T20:11:02.710Z,24.40
2019-05-07T20:13:32.368Z,24.40
2019-05-07T20:16:08.592Z,24.30
2019-05-07T20:18:37.371Z,24.30
2019-05-07T20:21:06.141Z,24.30
2019-05-07T20:23:34.931Z,24.30
2019-05-07T20:26:04.035Z,24.30
2019-05-07T20:28:32.891Z,24.30
2019-05-07T20:31:01.729Z,24.30
2019-05-07T20:33:32.569Z,24.30
2019-05-07T20:36:02.648Z,24.30
2019-05-07T20:38:32.105Z,24.30
2019-05-07T20:41:02.126Z,24.30
2019-05-07T20:43:32.646Z,24.30
2019-05-07T20:46:02.657Z,24.30
2019-05-07T20:48:32.480Z,24.30
2019-05-07T20:51:01.417Z,24.30
2019-05-07T20:53:48.047Z,24.30
2019-05-07T20:56:18.406Z,24.30
2019-05-07T20:58:47.167Z,24.20
2019-05-07T21:01:15.948Z,24.30
2019-05-07T21:03:44.734Z,24.20
2019-05-07T21:06:13.512Z,24.20
2019-05-07T21:08:42.846Z,24.20
2019-05-07T21:11:12.021Z,24.20
2019-05-07T21:13:42.603Z,24.20
2019-05-07T21:16:12.613Z,24.20
2019-05-07T21:18:42.107Z,24.20
2019-05-07T21:21:12.512Z,24.20
2019-05-07T21:23:43.408Z,24.20
2019-05-07T21:26:13.071Z,24.20
2019-05-07T21:28:43.064Z,24.20
2019-05-07T21:31:12.211Z,24.20
2019-05-07T21:33:42.943Z,24.20
2019-05-07T21:36:12.054Z,24.20
2019-05-07T21:38:42.535Z,24.20
2019-05-07T21:41:12.804Z,24.20
2019-05-07T21:43:45.614Z,24.20
2019-05-07T21:46:12.932Z,24.20
2019-05-07T21:48:41.793Z,24.20
2019-05-07T21:51:12.238Z,24.20
2019-05-07T21:54:00.901Z,24.20
2019-05-07T21:56:36.726Z,24.10
2019-05-07T21:59:04.797Z,24.20
2019-05-07T22:01:37.953Z,24.10
2019-05-07T22:04:06.831Z,24.20
2019-05-07T22:06:35.624Z,24.10
2019-05-07T22:09:07.016Z,24.10
2019-05-07T22:11:35.800Z,24.10
2019-05-07T22:14:04.580Z,24.10
2019-05-07T22:16:33.351Z,24.10
2019-05-07T22:19:02.766Z,24.10
2019-05-07T22:21:33.916Z,24.10
2019-05-07T22:24:02.822Z,24.10
2019-05-07T22:26:32.327Z,24.10
2019-05-07T22:29:03.137Z,24.10
2019-05-07T22:31:39.170Z,24.10
2019-05-07T22:34:09.504Z,24.10
2019-05-07T22:36:38.391Z,24.10
2019-05-07T22:39:07.361Z,24.10
2019-05-07T22:41:36.153Z,24.10
2019-05-07T22:44:04.927Z,24.10
2019-05-07T22:46:33.722Z,24.10
2019-05-07T22:49:03.146Z,24.10
2019-05-07T22:51:31.977Z,24.00
2019-05-07T22:54:04.089Z,24.00
2019-05-07T22:56:48.877Z,24.00
2019-05-07T22:59:17.771Z,24.10
2019-05-07T23:01:46.521Z,24.10
2019-05-07T23:04:15.301Z,24.10
2019-05-07T23:06:44.076Z,24.10
2019-05-07T23:09:12.897Z,24.00
2019-05-07T23:11:41.675Z,24.00
2019-05-07T23:14:11.847Z,24.00
2019-05-07T23:16:42.576Z,24.00
2019-05-07T23:19:13.932Z,24.00
2019-05-07T23:21:42.546Z,24.00
2019-05-07T23:24:11.515Z,24.00
2019-05-07T23:26:48.113Z,24.00
2019-05-07T23:29:11.864Z,24.00
2019-05-07T23:31:40.620Z,24.00
2019-05-07T23:34:09.404Z,24.00
2019-05-07T23:36:38.173Z,24.00
2019-05-07T23:39:08.695Z,24.00
2019-05-07T23:41:55.242Z,24.00
2019-05-07T23:44:24.023Z,24.00
2019-05-07T23:46:52.788Z,24.00
2019-05-07T23:49:23.205Z,24.00
2019-05-07T23:51:53.047Z,24.00
2019-05-07T23:54:23.043Z,24.00
2019-05-07T23:57:05.064Z,24.00
2019-05-07T23:59:22.470Z,24.00
